KLXY

Mexia-Limestone Co Airport

Mexia, Texas, USA
METAR KLXY 141155Z AUTO 31011G16KT 5SM -DZ OVC005 07/07 A2985 RMK AO2 LTG DSNT NE T00680065 10082 20068
Observed Flight Rules
Dec-14 @ 11:55 UTC (24 minutes ago) Instrument Flight Rules
Wind Visibility Clouds Conditions
310° at 11 knots
 Gusting to 16 knots
5 miles
  • Overcast at 500' AGL
  • Light Drizzle
Temperatures Readings
Current 7°C / 45°F
Dewpoint 7°C / 45°F
Humidity 100%
Altimeter 29.85" Hg
Pressure 1011 hPa
Elevation 166
METAR KLXY 141155Z AUTO 31011G16KT 5SM -DZ OVC005 07/07 A2985 RMK AO2 LTG DSNT NE T00680065 10082 20068
Observed Flight Rules
Dec-14 @ 11:55 UTC
(24 minutes ago)
IFR
Wind Visibility
310° at 11 knots
 Gusting to 16 knots
5 miles
Clouds
  • Overcast at 500' AGL
Conditions
  • Light Drizzle
Temperature Dewpoint
7°C / 45°F 7°C / 45°F
Humidity Altimeter Pressure
100% 29.85" Hg 1011 hPa